sensor_id;sensor_type;location;lat;lon;timestamp;pressure;altitude;pressure_sealevel;temperature;humidity
6389;BME280;3227;42.654;23.360;2022-10-29T00:01:04;95530.50;;;10.99;70.70
6389;BME280;3227;42.654;23.360;2022-10-29T00:03:32;95579.69;;;11.31;70.32
6389;BME280;3227;42.654;23.360;2022-10-29T00:06:00;95543.47;;;11.10;70.55
6389;BME280;3227;42.654;23.360;2022-10-29T00:08:28;95551.19;;;11.13;69.87
6389;BME280;3227;42.654;23.360;2022-10-29T00:11:03;95516.78;;;10.97;70.82
6389;BME280;3227;42.654;23.360;2022-10-29T00:13:30;95528.09;;;11.13;70.95
6389;BME280;3227;42.654;23.360;2022-10-29T00:15:57;95563.38;;;11.29;71.05
6389;BME280;3227;42.654;23.360;2022-10-29T00:18:24;95566.06;;;11.38;71.18
6389;BME280;3227;42.654;23.360;2022-10-29T00:21:00;95502.22;;;10.93;70.95
6389;BME280;3227;42.654;23.360;2022-10-29T00:23:27;95566.06;;;11.35;70.67
6389;BME280;3227;42.654;23.360;2022-10-29T00:25:55;95566.72;;;11.22;70.53
6389;BME280;3227;42.654;23.360;2022-10-29T00:28:22;95557.16;;;11.12;71.37
6389;BME280;3227;42.654;23.360;2022-10-29T00:30:49;95531.16;;;10.88;70.87
6389;BME280;3227;42.654;23.360;2022-10-29T00:33:16;95537.19;;;10.90;71.38
6389;BME280;3227;42.654;23.360;2022-10-29T00:35:53;95544.88;;;10.90;71.50
6389;BME280;3227;42.654;23.360;2022-10-29T00:38:22;95500.94;;;10.65;71.50
6389;BME280;3227;42.654;23.360;2022-10-29T00:40:49;95546.63;;;10.92;71.66
6389;BME280;3227;42.654;23.360;2022-10-29T00:43:18;95549.19;;;10.92;71.59
6389;BME280;3227;42.654;23.360;2022-10-29T00:45:47;95540.56;;;10.86;72.26
6389;BME280;3227;42.654;23.360;2022-10-29T00:48:16;95543.13;;;10.86;72.49
6389;BME280;3227;42.654;23.360;2022-10-29T00:50:43;95546.53;;;10.88;72.56
6389;BME280;3227;42.654;23.360;2022-10-29T00:53:11;95548.13;;;10.80;72.66
6389;BME280;3227;42.654;23.360;2022-10-29T00:55:39;95530.91;;;10.70;72.87
6389;BME280;3227;42.654;23.360;2022-10-29T00:58:09;95513.66;;;10.59;72.73
6389;BME280;3227;42.654;23.360;2022-10-29T01:00:36;95548.03;;;10.72;73.37
6389;BME280;3227;42.654;23.360;2022-10-29T01:03:03;95543.66;;;10.66;73.24
6389;BME280;3227;42.654;23.360;2022-10-29T01:05:30;95544.50;;;10.65;73.21
6389;BME280;3227;42.654;23.360;2022-10-29T01:07:59;95542.03;;;10.72;73.12
6389;BME280;3227;42.654;23.360;2022-10-29T01:10:31;95474.00;;;10.36;72.61
6389;BME280;3227;42.654;23.360;2022-10-29T01:13:19;95533.66;;;10.82;72.79
6389;BME280;3227;42.654;23.360;2022-10-29T01:16:00;95498.41;;;10.67;72.24
6389;BME280;3227;42.654;23.360;2022-10-29T01:18:35;95525.06;;;10.78;72.08
6389;BME280;3227;42.654;23.360;2022-10-29T01:24:25;95526.59;;;10.67;72.05
6389;BME280;3227;42.654;23.360;2022-10-29T01:27:19;95491.34;;;10.52;72.43
6389;BME280;3227;42.654;23.360;2022-10-29T01:30:17;95499.16;;;10.60;71.55
6389;BME280;3227;42.654;23.360;2022-10-29T01:33:00;95507.72;;;10.63;71.08
6389;BME280;3227;42.654;23.360;2022-10-29T01:35:40;95510.25;;;10.60;71.63
6389;BME280;3227;42.654;23.360;2022-10-29T01:38:18;95515.41;;;10.62;71.12
6389;BME280;3227;42.654;23.360;2022-10-29T01:40:54;95514.53;;;10.60;71.63
6389;BME280;3227;42.654;23.360;2022-10-29T01:43:27;95504.13;;;10.51;71.74
6389;BME280;3227;42.654;23.360;2022-10-29T01:46:03;95451.38;;;10.11;72.02
6389;BME280;3227;42.654;23.360;2022-10-29T01:48:35;95514.38;;;10.51;72.00
6389;BME280;3227;42.654;23.360;2022-10-29T01:51:07;95511.78;;;10.49;72.19
6389;BME280;3227;42.654;23.360;2022-10-29T01:53:36;95449.72;;;10.16;72.16
6389;BME280;3227;42.654;23.360;2022-10-29T01:56:03;95492.88;;;10.41;71.71
6389;BME280;3227;42.654;23.360;2022-10-29T01:58:31;95501.50;;;10.48;72.03
6389;BME280;3227;42.654;23.360;2022-10-29T02:01:07;95510.13;;;10.51;71.94
6389;BME280;3227;42.654;23.360;2022-10-29T02:03:44;95511.78;;;10.49;72.03
6389;BME280;3227;42.654;23.360;2022-10-29T02:06:21;95514.22;;;10.42;72.55
6389;BME280;3227;42.654;23.360;2022-10-29T02:08:55;95508.19;;;10.38;72.04
6389;BME280;3227;42.654;23.360;2022-10-29T02:11:33;95470.97;;;10.09;71.96
6389;BME280;3227;42.654;23.360;2022-10-29T02:14:04;95508.97;;;10.33;71.63
6389;BME280;3227;42.654;23.360;2022-10-29T02:16:33;95493.50;;;10.26;71.65
6389;BME280;3227;42.654;23.360;2022-10-29T02:19:01;95502.78;;;10.20;71.75
6389;BME280;3227;42.654;23.360;2022-10-29T02:21:28;95493.19;;;10.10;72.15
6389;BME280;3227;42.654;23.360;2022-10-29T02:23:55;95494.50;;;9.89;72.85
6389;BME280;3227;42.654;23.360;2022-10-29T02:26:21;95500.47;;;9.87;73.93
6389;BME280;3227;42.654;23.360;2022-10-29T02:28:48;95455.66;;;9.64;74.52
6389;BME280;3227;42.654;23.360;2022-10-29T02:31:15;95497.03;;;9.86;74.39
6389;BME280;3227;42.654;23.360;2022-10-29T02:33:42;95498.63;;;9.80;74.56
6389;BME280;3227;42.654;23.360;2022-10-29T02:36:15;95501.53;;;9.53;76.12
6389;BME280;3227;42.654;23.360;2022-10-29T02:38:42;95487.22;;;9.63;75.26
6389;BME280;3227;42.654;23.360;2022-10-29T02:41:09;95477.13;;;9.70;75.38
6389;BME280;3227;42.654;23.360;2022-10-29T02:43:35;95484.97;;;9.79;74.88
6389;BME280;3227;42.654;23.360;2022-10-29T02:46:12;95493.50;;;9.80;74.98
6389;BME280;3227;42.654;23.360;2022-10-29T02:48:39;95480.66;;;9.77;75.27
6389;BME280;3227;42.654;23.360;2022-10-29T02:51:07;95487.53;;;9.81;76.43
6389;BME280;3227;42.654;23.360;2022-10-29T02:53:35;95494.44;;;9.85;76.53
6389;BME280;3227;42.654;23.360;2022-10-29T02:56:02;95490.22;;;9.88;75.46
6389;BME280;3227;42.654;23.360;2022-10-29T02:58:31;95475.63;;;9.83;75.38
6389;BME280;3227;42.654;23.360;2022-10-29T03:00:58;95429.78;;;9.47;75.20
6389;BME280;3227;42.654;23.360;2022-10-29T03:03:25;95491.66;;;9.71;74.65
6389;BME280;3227;42.654;23.360;2022-10-29T03:05:52;95462.22;;;9.49;74.57
6389;BME280;3227;42.654;23.360;2022-10-29T03:08:19;95436.31;;;9.33;74.42
6389;BME280;3227;42.654;23.360;2022-10-29T03:10:47;95501.75;;;9.65;74.24
6389;BME280;3227;42.654;23.360;2022-10-29T03:13:14;95487.19;;;9.61;74.26
6389;BME280;3227;42.654;23.360;2022-10-29T03:15:42;95489.75;;;9.61;74.56
6389;BME280;3227;42.654;23.360;2022-10-29T03:18:10;95484.56;;;9.58;74.84
6389;BME280;3227;42.654;23.360;2022-10-29T03:20:37;95429.16;;;9.15;75.24
6389;BME280;3227;42.654;23.360;2022-10-29T03:23:04;95492.09;;;9.50;75.59
6389;BME280;3227;42.654;23.360;2022-10-29T03:25:30;95470.72;;;9.47;76.36
6389;BME280;3227;42.654;23.360;2022-10-29T03:27:59;95434.47;;;9.26;76.66
6389;BME280;3227;42.654;23.360;2022-10-29T03:30:25;95483.59;;;9.51;75.54
6389;BME280;3227;42.654;23.360;2022-10-29T03:32:52;95483.63;;;9.53;75.15
6389;BME280;3227;42.654;23.360;2022-10-29T03:35:19;95480.19;;;9.52;75.67
6389;BME280;3227;42.654;23.360;2022-10-29T03:37:48;95459.34;;;9.33;75.50
6389;BME280;3227;42.654;23.360;2022-10-29T03:40:15;95478.41;;;9.47;75.25
6389;BME280;3227;42.654;23.360;2022-10-29T03:42:42;95473.25;;;9.45;74.66
6389;BME280;3227;42.654;23.360;2022-10-29T03:45:11;95478.28;;;9.42;75.76
6389;BME280;3227;42.654;23.360;2022-10-29T03:47:37;95472.38;;;9.45;75.92
6389;BME280;3227;42.654;23.360;2022-10-29T03:50:05;95460.38;;;9.42;76.28
6389;BME280;3227;42.654;23.360;2022-10-29T03:52:32;95468.16;;;9.48;76.09
6389;BME280;3227;42.654;23.360;2022-10-29T03:54:59;95459.59;;;9.45;75.86
6389;BME280;3227;42.654;23.360;2022-10-29T03:57:25;95475.00;;;9.49;75.52
6389;BME280;3227;42.654;23.360;2022-10-29T03:59:52;95477.59;;;9.51;75.54
6389;BME280;3227;42.654;23.360;2022-10-29T04:02:21;95432.75;;;9.25;74.47
6389;BME280;3227;42.654;23.360;2022-10-29T04:04:48;95439.41;;;9.16;74.51
6389;BME280;3227;42.654;23.360;2022-10-29T04:07:15;95472.22;;;9.37;74.69
6389;BME280;3227;42.654;23.360;2022-10-29T04:09:42;95477.44;;;9.42;75.00
6389;BME280;3227;42.654;23.360;2022-10-29T04:12:09;95484.34;;;9.46;75.41
6389;BME280;3227;42.654;23.360;2022-10-29T04:14:36;95475.88;;;9.50;75.05
6389;BME280;3227;42.654;23.360;2022-10-29T04:17:02;95480.16;;;9.51;74.76
6389;BME280;3227;42.654;23.360;2022-10-29T04:19:31;95487.84;;;9.51;74.70
6389;BME280;3227;42.654;23.360;2022-10-29T04:21:57;95481.94;;;9.53;76.18
6389;BME280;3227;42.654;23.360;2022-10-29T04:24:27;95486.91;;;9.46;76.53
6389;BME280;3227;42.654;23.360;2022-10-29T04:26:54;95496.16;;;9.41;75.48
6389;BME280;3227;42.654;23.360;2022-10-29T04:29:25;95502.94;;;9.39;75.47
6389;BME280;3227;42.654;23.360;2022-10-29T04:31:53;95493.41;;;9.32;75.91
6389;BME280;3227;42.654;23.360;2022-10-29T04:34:20;95482.03;;;9.16;75.93
6389;BME280;3227;42.654;23.360;2022-10-29T04:36:50;95449.59;;;8.73;77.09
6389;BME280;3227;42.654;23.360;2022-10-29T04:39:18;95499.72;;;9.05;77.12
6389;BME280;3227;42.654;23.360;2022-10-29T04:41:46;95487.66;;;9.00;77.12
6389;BME280;3227;42.654;23.360;2022-10-29T04:44:13;95488.63;;;9.06;77.56
6389;BME280;3227;42.654;23.360;2022-10-29T04:46:40;95439.44;;;8.76;77.76
6389;BME280;3227;42.654;23.360;2022-10-29T04:49:07;95457.59;;;8.88;77.20
6389;BME280;3227;42.654;23.360;2022-10-29T04:51:33;95502.44;;;9.13;77.34
6389;BME280;3227;42.654;23.360;2022-10-29T04:54:03;95490.50;;;9.13;76.99
6389;BME280;3227;42.654;23.360;2022-10-29T04:56:30;95504.16;;;9.15;77.35
6389;BME280;3227;42.654;23.360;2022-10-29T04:58:57;95475.03;;;9.07;76.82
6389;BME280;3227;42.654;23.360;2022-10-29T05:01:24;95497.63;;;9.28;76.17
6389;BME280;3227;42.654;23.360;2022-10-29T05:03:51;95494.25;;;9.31;76.15
6389;BME280;3227;42.654;23.360;2022-10-29T05:06:18;95416.81;;;8.94;75.95
6389;BME280;3227;42.654;23.360;2022-10-29T05:08:44;95493.06;;;9.57;75.57
6389;BME280;3227;42.654;23.360;2022-10-29T05:11:12;95499.44;;;9.77;74.92
6389;BME280;3227;42.654;23.360;2022-10-29T05:13:39;95498.97;;;10.00;73.52
6389;BME280;3227;42.654;23.360;2022-10-29T05:16:06;95496.78;;;10.19;72.80
6389;BME280;3227;42.654;23.360;2022-10-29T05:18:33;95498.66;;;10.29;71.96
6389;BME280;3227;42.654;23.360;2022-10-29T05:21:01;95453.22;;;10.18;70.98
6389;BME280;3227;42.654;23.360;2022-10-29T05:23:28;95495.91;;;10.70;70.80
6389;BME280;3227;42.654;23.360;2022-10-29T05:25:55;95486.72;;;10.86;69.77
6389;BME280;3227;42.654;23.360;2022-10-29T05:28:23;95499.97;;;11.18;68.51
6389;BME280;3227;42.654;23.360;2022-10-29T05:30:51;95494.22;;;11.38;67.20
6389;BME280;3227;42.654;23.360;2022-10-29T05:33:19;95497.91;;;11.59;66.00
6389;BME280;3227;42.654;23.360;2022-10-29T05:35:47;95482.66;;;11.74;65.16
6389;BME280;3227;42.654;23.360;2022-10-29T05:38:14;95512.09;;;12.03;64.23
6389;BME280;3227;42.654;23.360;2022-10-29T05:40:41;95503.72;;;12.23;63.42
6389;BME280;3227;42.654;23.360;2022-10-29T05:43:09;95457.31;;;12.04;63.08
6389;BME280;3227;42.654;23.360;2022-10-29T05:45:38;95514.19;;;12.44;62.72
6389;BME280;3227;42.654;23.360;2022-10-29T05:48:05;95512.53;;;12.49;62.22
6389;BME280;3227;42.654;23.360;2022-10-29T05:50:33;95514.31;;;12.62;61.96
6389;BME280;3227;42.654;23.360;2022-10-29T05:53:01;95508.44;;;12.74;61.98
6389;BME280;3227;42.654;23.360;2022-10-29T05:55:30;95513.72;;;12.95;60.73
6389;BME280;3227;42.654;23.360;2022-10-29T05:57:57;95512.97;;;13.13;60.61
6389;BME280;3227;42.654;23.360;2022-10-29T06:00:26;95515.69;;;13.32;59.90
6389;BME280;3227;42.654;23.360;2022-10-29T06:02:54;95518.38;;;13.58;59.20
6389;BME280;3227;42.654;23.360;2022-10-29T06:05:21;95499.44;;;13.41;58.29
6389;BME280;3227;42.654;23.360;2022-10-29T06:07:52;95525.25;;;13.64;58.71
6389;BME280;3227;42.654;23.360;2022-10-29T06:10:20;95521.81;;;13.57;57.92
6389;BME280;3227;42.654;23.360;2022-10-29T06:12:47;95527.78;;;13.53;59.10
6389;BME280;3227;42.654;23.360;2022-10-29T06:15:14;95526.06;;;13.49;59.02
6389;BME280;3227;42.654;23.360;2022-10-29T06:17:41;95484.84;;;13.42;58.15
6389;BME280;3227;42.654;23.360;2022-10-29T06:20:11;95531.41;;;13.98;56.96
6389;BME280;3227;42.654;23.360;2022-10-29T06:22:38;95527.13;;;14.20;56.51
6389;BME280;3227;42.654;23.360;2022-10-29T06:25:06;95506.53;;;14.24;56.28
6389;BME280;3227;42.654;23.360;2022-10-29T06:27:33;95496.19;;;14.09;56.23
6389;BME280;3227;42.654;23.360;2022-10-29T06:30:00;95531.44;;;14.28;56.65
6389;BME280;3227;42.654;23.360;2022-10-29T06:32:27;95529.75;;;14.30;56.23
6389;BME280;3227;42.654;23.360;2022-10-29T06:34:53;95532.31;;;14.30;57.12
6389;BME280;3227;42.654;23.360;2022-10-29T06:37:22;95517.75;;;14.38;56.64
6389;BME280;3227;42.654;23.360;2022-10-29T06:39:48;95503.13;;;14.51;55.97
6389;BME280;3227;42.654;23.360;2022-10-29T06:42:15;95518.63;;;14.65;56.77
6389;BME280;3227;42.654;23.360;2022-10-29T06:44:42;95521.22;;;14.57;57.71
6389;BME280;3227;42.654;23.360;2022-10-29T06:47:09;95513.44;;;14.50;58.03
6389;BME280;3227;42.654;23.360;2022-10-29T06:49:36;95521.19;;;14.42;57.35
6389;BME280;3227;42.654;23.360;2022-10-29T06:52:03;95524.56;;;14.21;57.97
6389;BME280;3227;42.654;23.360;2022-10-29T06:54:31;95492.69;;;13.86;58.49
6389;BME280;3227;42.654;23.360;2022-10-29T06:56:58;95415.19;;;13.13;59.12
6389;BME280;3227;42.654;23.360;2022-10-29T06:59:24;95529.47;;;13.41;60.19
6389;BME280;3227;42.654;23.360;2022-10-29T07:01:51;95481.31;;;13.21;60.36
6389;BME280;3227;42.654;23.360;2022-10-29T07:04:18;95526.88;;;13.45;61.29
6389;BME280;3227;42.654;23.360;2022-10-29T07:06:45;95528.66;;;13.49;60.27
6389;BME280;3227;42.654;23.360;2022-10-29T07:09:12;95535.56;;;13.62;60.52
6389;BME280;3227;42.654;23.360;2022-10-29T07:11:41;95512.38;;;13.56;60.45
6389;BME280;3227;42.654;23.360;2022-10-29T07:14:07;95534.75;;;13.76;60.51
6389;BME280;3227;42.654;23.360;2022-10-29T07:16:35;95518.44;;;13.80;60.45
6389;BME280;3227;42.654;23.360;2022-10-29T07:19:02;95534.00;;;14.12;59.74
6389;BME280;3227;42.654;23.360;2022-10-29T07:21:29;95537.44;;;14.18;59.80
6389;BME280;3227;42.654;23.360;2022-10-29T07:23:56;95535.75;;;14.35;59.74
6389;BME280;3227;42.654;23.360;2022-10-29T07:26:22;95506.50;;;14.26;59.11
6389;BME280;3227;42.654;23.360;2022-10-29T07:28:53;95547.00;;;14.65;58.97
6389;BME280;3227;42.654;23.360;2022-10-29T07:31:21;95541.84;;;14.72;59.14
6389;BME280;3227;42.654;23.360;2022-10-29T07:33:48;95501.44;;;14.49;57.67
6389;BME280;3227;42.654;23.360;2022-10-29T07:36:15;95474.75;;;14.37;59.26
6389;BME280;3227;42.654;23.360;2022-10-29T07:38:41;95473.91;;;14.73;59.30
6389;BME280;3227;42.654;23.360;2022-10-29T07:41:08;95509.09;;;15.20;56.49
6389;BME280;3227;42.654;23.360;2022-10-29T07:43:35;95539.13;;;15.50;55.74
6389;BME280;3227;42.654;23.360;2022-10-29T07:46:03;95505.63;;;15.32;54.58
6389;BME280;3227;42.654;23.360;2022-10-29T07:48:30;95528.81;;;15.50;54.63
6389;BME280;3227;42.654;23.360;2022-10-29T07:50:57;95487.56;;;15.26;54.50
6389;BME280;3227;42.654;23.360;2022-10-29T07:53:24;95517.63;;;15.40;54.92
6389;BME280;3227;42.654;23.360;2022-10-29T07:55:52;95538.28;;;15.43;55.10
6389;BME280;3227;42.654;23.360;2022-10-29T07:58:19;95533.09;;;15.51;55.69
6389;BME280;3227;42.654;23.360;2022-10-29T08:00:45;95511.59;;;15.64;58.01
6389;BME280;3227;42.654;23.360;2022-10-29T08:03:14;95526.91;;;16.04;54.20
6389;BME280;3227;42.654;23.360;2022-10-29T08:05:41;95502.91;;;15.80;53.84
6389;BME280;3227;42.654;23.360;2022-10-29T08:08:08;95483.13;;;15.66;54.53
6389;BME280;3227;42.654;23.360;2022-10-29T08:10:35;95492.53;;;15.86;55.13
6389;BME280;3227;42.654;23.360;2022-10-29T08:13:04;95483.03;;;15.88;55.36
6389;BME280;3227;42.654;23.360;2022-10-29T08:15:32;95479.56;;;15.94;54.07
6389;BME280;3227;42.654;23.360;2022-10-29T08:18:00;95513.13;;;16.05;53.40
6389;BME280;3227;42.654;23.360;2022-10-29T08:20:29;95490.75;;;15.91;53.92
6389;BME280;3227;42.654;23.360;2022-10-29T08:22:58;95513.13;;;16.02;53.38
6389;BME280;3227;42.654;23.360;2022-10-29T08:25:25;95460.72;;;15.71;53.99
6389;BME280;3227;42.654;23.360;2022-10-29T08:27:59;95501.91;;;16.06;53.89
6389;BME280;3227;42.654;23.360;2022-10-29T08:30:26;95468.25;;;16.09;52.76
6389;BME280;3227;42.654;23.360;2022-10-29T08:32:53;95511.09;;;16.49;53.34
6389;BME280;3227;42.654;23.360;2022-10-29T08:35:20;95479.22;;;16.41;52.21
6389;BME280;3227;42.654;23.360;2022-10-29T08:37:48;95511.84;;;16.65;53.00
6389;BME280;3227;42.654;23.360;2022-10-29T08:40:24;95506.69;;;16.60;51.79
6389;BME280;3227;42.654;23.360;2022-10-29T08:45:54;95499.91;;;16.44;53.36
6389;BME280;3227;42.654;23.360;2022-10-29T08:48:27;95496.47;;;16.45;52.78
6389;BME280;3227;42.654;23.360;2022-10-29T08:50:59;95425.28;;;15.92;52.96
6389;BME280;3227;42.654;23.360;2022-10-29T08:53:33;95497.31;;;16.46;52.83
6389;BME280;3227;42.654;23.360;2022-10-29T08:56:05;95462.03;;;16.37;53.52
6389;BME280;3227;42.654;23.360;2022-10-29T08:58:42;95484.22;;;16.71;53.15
6389;BME280;3227;42.654;23.360;2022-10-29T09:01:11;95456.56;;;16.72;52.13
6389;BME280;3227;42.654;23.360;2022-10-29T09:03:38;95435.84;;;16.77;52.20
6389;BME280;3227;42.654;23.360;2022-10-29T09:06:09;95489.78;;;17.21;51.02
6389;BME280;3227;42.654;23.360;2022-10-29T09:08:49;95389.47;;;16.51;51.11
6389;BME280;3227;42.654;23.360;2022-10-29T09:11:37;95483.97;;;16.97;51.33
6389;BME280;3227;42.654;23.360;2022-10-29T09:14:19;95481.41;;;16.94;51.77
6389;BME280;3227;42.654;23.360;2022-10-29T09:16:57;95463.22;;;16.99;51.28
6389;BME280;3227;42.654;23.360;2022-10-29T09:19:41;95476.78;;;17.25;50.80
6389;BME280;3227;42.654;23.360;2022-10-29T09:22:16;95433.03;;;16.98;50.58
6389;BME280;3227;42.654;23.360;2022-10-29T09:24:56;95465.47;;;17.32;51.02
6389;BME280;3227;42.654;23.360;2022-10-29T09:27:37;95463.72;;;17.36;50.17
6389;BME280;3227;42.654;23.360;2022-10-29T09:30:11;95471.22;;;17.56;50.03
6389;BME280;3227;42.654;23.360;2022-10-29T09:32:42;95466.91;;;17.62;50.39
6389;BME280;3227;42.654;23.360;2022-10-29T09:35:13;95466.84;;;17.64;49.22
6389;BME280;3227;42.654;23.360;2022-10-29T09:37:46;95461.69;;;17.61;49.74
6389;BME280;3227;42.654;23.360;2022-10-29T09:40:28;95427.53;;;17.28;49.97
6389;BME280;3227;42.654;23.360;2022-10-29T09:42:57;95401.28;;;16.81;50.38
6389;BME280;3227;42.654;23.360;2022-10-29T09:45:39;95433.09;;;16.95;50.72
6389;BME280;3227;42.654;23.360;2022-10-29T09:48:14;95462.22;;;17.13;50.77
6389;BME280;3227;42.654;23.360;2022-10-29T09:50:51;95419.28;;;16.96;50.84
6389;BME280;3227;42.654;23.360;2022-10-29T09:53:19;95408.75;;;17.11;50.86
6389;BME280;3227;42.654;23.360;2022-10-29T09:55:48;95405.91;;;17.31;50.32
6389;BME280;3227;42.654;23.360;2022-10-29T09:58:20;95389.56;;;17.24;49.71
6389;BME280;3227;42.654;23.360;2022-10-29T10:00:48;95435.88;;;17.53;49.86
6389;BME280;3227;42.654;23.360;2022-10-29T10:03:19;95415.25;;;17.42;50.11
6389;BME280;3227;42.654;23.360;2022-10-29T10:05:59;95416.97;;;17.43;50.06
6389;BME280;3227;42.654;23.360;2022-10-29T10:08:26;95427.19;;;17.56;49.96
6389;BME280;3227;42.654;23.360;2022-10-29T10:10:56;95394.56;;;17.39;50.08
6389;BME280;3227;42.654;23.360;2022-10-29T10:13:26;95405.56;;;17.57;50.02
6389;BME280;3227;42.654;23.360;2022-10-29T10:15:56;95393.41;;;17.65;49.36
6389;BME280;3227;42.654;23.360;2022-10-29T10:18:24;95369.97;;;17.72;49.03
6389;BME280;3227;42.654;23.360;2022-10-29T10:21:03;95392.91;;;18.00;49.21
6389;BME280;3227;42.654;23.360;2022-10-29T10:23:40;95383.56;;;17.88;48.46
6389;BME280;3227;42.654;23.360;2022-10-29T10:26:27;95382.69;;;17.87;48.95
6389;BME280;3227;42.654;23.360;2022-10-29T10:29:19;95365.41;;;17.90;48.76
6389;BME280;3227;42.654;23.360;2022-10-29T10:31:47;95325.09;;;17.69;48.35
6389;BME280;3227;42.654;23.360;2022-10-29T10:34:17;95259.78;;;17.45;48.20
6389;BME280;3227;42.654;23.360;2022-10-29T10:36:49;95352.06;;;18.12;48.17
6389;BME280;3227;42.654;23.360;2022-10-29T10:39:24;95167.06;;;17.09;48.27
6389;BME280;3227;42.654;23.360;2022-10-29T10:41:53;95362.03;;;18.37;48.00
6389;BME280;3227;42.654;23.360;2022-10-29T10:44:22;95360.22;;;18.42;47.33
6389;BME280;3227;42.654;23.360;2022-10-29T10:46:50;95356.75;;;18.43;47.44
6389;BME280;3227;42.654;23.360;2022-10-29T10:49:27;95347.00;;;18.55;47.27
6389;BME280;3227;42.654;23.360;2022-10-29T10:51:56;95326.34;;;18.49;46.76
6389;BME280;3227;42.654;23.360;2022-10-29T10:54:27;95339.94;;;18.67;47.13
6389;BME280;3227;42.654;23.360;2022-10-29T10:56:59;95323.38;;;18.72;47.35
6389;BME280;3227;42.654;23.360;2022-10-29T10:59:38;95341.91;;;18.98;46.34
6389;BME280;3227;42.654;23.360;2022-10-29T11:02:18;95285.81;;;18.88;46.08
6389;BME280;3227;42.654;23.360;2022-10-29T11:04:49;95339.56;;;19.28;45.98
6389;BME280;3227;42.654;23.360;2022-10-29T11:07:20;95333.25;;;19.39;45.92
6389;BME280;3227;42.654;23.360;2022-10-29T11:09:49;95297.09;;;19.29;45.07
6389;BME280;3227;42.654;23.360;2022-10-29T11:12:26;95305.50;;;19.42;44.50
6389;BME280;3227;42.654;23.360;2022-10-29T11:14:58;95320.16;;;19.44;44.99
6389;BME280;3227;42.654;23.360;2022-10-29T11:17:28;95296.06;;;19.36;44.83
6389;BME280;3227;42.654;23.360;2022-10-29T11:20:00;95311.09;;;19.63;44.38
6389;BME280;3227;42.654;23.360;2022-10-29T11:22:31;95282.72;;;19.53;44.27
6389;BME280;3227;42.654;23.360;2022-10-29T11:25:09;95262.63;;;19.61;44.28
6389;BME280;3227;42.654;23.360;2022-10-29T11:27:46;95295.00;;;19.85;43.98
6389;BME280;3227;42.654;23.360;2022-10-29T11:30:17;95293.91;;;19.93;43.73
6389;BME280;3227;42.654;23.360;2022-10-29T11:32:52;95289.44;;;20.00;42.84
6389;BME280;3227;42.654;23.360;2022-10-29T11:35:25;95291.06;;;20.04;42.02
6389;BME280;3227;42.654;23.360;2022-10-29T11:37:57;95289.28;;;20.06;41.00
6389;BME280;3227;42.654;23.360;2022-10-29T11:40:33;95205.38;;;19.62;40.93
6389;BME280;3227;42.654;23.360;2022-10-29T11:43:08;95257.16;;;20.07;40.88
6389;BME280;3227;42.654;23.360;2022-10-29T11:45:46;95274.38;;;20.12;41.23
6389;BME280;3227;42.654;23.360;2022-10-29T11:48:18;95249.16;;;19.81;41.37
6389;BME280;3227;42.654;23.360;2022-10-29T11:50:55;95263.72;;;19.88;41.31
6389;BME280;3227;42.654;23.360;2022-10-29T11:53:36;95276.38;;;20.01;41.44
6389;BME280;3227;42.654;23.360;2022-10-29T11:56:11;95228.94;;;19.92;40.46
6389;BME280;3227;42.654;23.360;2022-10-29T11:58:44;95268.94;;;20.22;40.15
6389;BME280;3227;42.654;23.360;2022-10-29T12:01:18;95263.50;;;20.31;39.50
6389;BME280;3227;42.654;23.360;2022-10-29T12:04:16;95247.88;;;20.31;39.29
6389;BME280;3227;42.654;23.360;2022-10-29T12:06:55;95252.03;;;20.39;38.93
6389;BME280;3227;42.654;23.360;2022-10-29T12:09:54;95257.03;;;20.47;38.48
6389;BME280;3227;42.654;23.360;2022-10-29T12:12:31;95234.63;;;20.41;38.59
6389;BME280;3227;42.654;23.360;2022-10-29T12:15:12;95193.94;;;20.37;38.24
6389;BME280;3227;42.654;23.360;2022-10-29T12:17:47;95242.53;;;20.68;38.57
6389;BME280;3227;42.654;23.360;2022-10-29T12:20:21;95232.91;;;20.71;38.48
6389;BME280;3227;42.654;23.360;2022-10-29T12:22:56;95229.34;;;20.75;38.23
6389;BME280;3227;42.654;23.360;2022-10-29T12:28:53;95207.13;;;20.62;38.00
6389;BME280;3227;42.654;23.360;2022-10-29T12:31:29;95233.59;;;20.78;38.07
6389;BME280;3227;42.654;23.360;2022-10-29T12:34:01;95224.78;;;20.82;37.94
6389;BME280;3227;42.654;23.360;2022-10-29T12:36:34;95226.50;;;20.83;38.38
6389;BME280;3227;42.654;23.360;2022-10-29T12:39:07;95227.28;;;20.85;37.98
6389;BME280;3227;42.654;23.360;2022-10-29T12:41:41;95172.63;;;20.54;37.69
6389;BME280;3227;42.654;23.360;2022-10-29T12:44:15;95218.69;;;20.83;37.54
6389;BME280;3227;42.654;23.360;2022-10-29T12:46:53;95223.91;;;20.83;37.99
6389;BME280;3227;42.654;23.360;2022-10-29T12:49:34;95211.59;;;20.88;37.99
6389;BME280;3227;42.654;23.360;2022-10-29T12:52:10;95173.91;;;20.70;37.79
6389;BME280;3227;42.654;23.360;2022-10-29T12:54:40;95210.38;;;21.00;37.99
6389;BME280;3227;42.654;23.360;2022-10-29T12:57:26;95207.81;;;20.98;37.40
6389;BME280;3227;42.654;23.360;2022-10-29T12:59:54;95205.81;;;21.08;37.51
6389;BME280;3227;42.654;23.360;2022-10-29T13:02:41;95198.97;;;21.04;37.13
6389;BME280;3227;42.654;23.360;2022-10-29T13:05:14;95190.44;;;20.99;37.26
6389;BME280;3227;42.654;23.360;2022-10-29T13:08:07;95192.91;;;21.03;37.37
6389;BME280;3227;42.654;23.360;2022-10-29T13:10:48;95080.22;;;20.39;37.32
6389;BME280;3227;42.654;23.360;2022-10-29T13:13:23;95183.28;;;21.05;37.63
6389;BME280;3227;42.654;23.360;2022-10-29T13:16:01;95166.13;;;20.98;37.12
6389;BME280;3227;42.654;23.360;2022-10-29T13:18:43;95160.97;;;20.97;36.77
6389;BME280;3227;42.654;23.360;2022-10-29T13:21:13;95178.78;;;21.10;36.88
6389;BME280;3227;42.654;23.360;2022-10-29T13:24:03;95159.91;;;21.02;36.48
6389;BME280;3227;42.654;23.360;2022-10-29T13:27:04;95172.78;;;21.08;36.43
6389;BME280;3227;42.654;23.360;2022-10-29T13:29:48;95175.53;;;20.74;36.86
6389;BME280;3227;42.654;23.360;2022-10-29T13:32:32;95147.28;;;20.28;37.55
6389;BME280;3227;42.654;23.360;2022-10-29T13:35:02;95162.59;;;20.42;37.53
6389;BME280;3227;42.654;23.360;2022-10-29T13:37:53;95178.88;;;20.48;36.89
6389;BME280;3227;42.654;23.360;2022-10-29T13:43:27;95144.50;;;20.03;37.78
6389;BME280;3227;42.654;23.360;2022-10-29T13:48:53;95170.66;;;20.31;37.68